Airfield :
LOGIN :

Register | Disclaimer

   EN    FR    IT 

 










Legend :    VFR   Marginal VFR   IFR   Intensive IFR   Very Intensive IFR
Visi :
Ceiling :
>= 8 km
>= 3000ft
5 to 8 km
1000 to 3000 ft
1500m to 5 km
500 to 1000 ft
800 to 1500m
200 to 500 ft
< 800m
< 200 ft
Symbols :   Thunderstorms  Fog  Heavy snow  Heavy precipitations  Wind > 20 kt
SIGMETs :     Misc.  Thunderstorms  Icing  Turbulence  Mountain Waves  Volcanic Ashes






- Airport Elevation : 32 ft
- IATA code : LKZ


EGUL - RAF Lakenheath

CURRENT METAR :
  • 232256Z AUTO 22007KT 9999 CLR 08/08 A2978 RMK AO2 SLP088 T00790079 $

EXPIRED METARs :
  • 232156Z AUTO 23008KT 9999 CLR 08/08 A2978 RMK AO2 SLP088 T00840084 $
  • 232056Z AUTO 24008KT 9999 CLR 08/08 A2978 RMK AO2 SLP088 T00790079 52018 $

TAF TAF EGUL
Valid from the 23 at 20:00 until the 25 at 02:00 UTC


232001Z 2320/2502 22012G18KT 9999 SCT020 BKN040 QNH2972INS
BECMG 2406/2407 20015G25KT 9999 BKN020 QNH2963INS
TEMPO 2412/2416 20025G35KT 510005
BECMG 2415/2416 20025G35KT 8000 -SHRA BKN015 OVC050 610608 510005 QNH2945INS
BECMG 2420/2421 23015G25KT 6000 -SHRA VCTS BKN010CB OVC040 QNH2938INS TX14/2412Z TN07/2404Z LAST NO AMDS AFT 2320 NEXT 2604



MET'MAP, your aeronautical weather chart ! - Copyright ORBIFLY December 2007 - Disclaimer

ORBIFLY MET'MAP TEAM :

Programming & Development : Alexandra Zaïnal
Concept & original design : Baudouin d'Aumeries
Assistance for programming : Marc-Olivier Méhu
Technical & hardware support : Manuel Goepfert

Contact : metmap@orbifly.com




SOURCES & CREDITS :

   NOAA